Time;durP1;ratioP1;P1;durP2;ratioP2;P2;SDS_P1;SDS_P2;PMS_P1;PMS_P2;Temp;Humidity;BMP_temperature;BMP_pressure;BME280_temperature;BME280_humidity;BME280_pressure;Samples;Min_cycle;Max_cycle;Signal;HPM_P1;HPM_P2
2023/10/21 00:01:40;;;;;;;27.08;4.25;;;;;;;;;;5062891;28;20036;-50
2023/10/21 00:04:08;;;;;;;33.20;4.43;;;;;;;;;;5073071;28;20047;-51
2023/10/21 00:06:35;;;;;;;29.63;5.18;;;;;;;;;;5071611;28;20021;-58
2023/10/21 00:09:02;;;;;;;27.45;4.18;;;;;;;;;;5070505;28;20035;-57
2023/10/21 00:11:29;;;;;;;33.10;5.88;;;;;;;;;;5069784;28;20032;-56
2023/10/21 00:13:57;;;;;;;36.33;5.95;;;;;;;;;;5071957;28;20690;-52
2023/10/21 00:16:24;;;;;;;37.83;5.57;;;;;;;;;;5071170;28;20036;-50
2023/10/21 00:18:51;;;;;;;28.42;5.93;;;;;;;;;;5073943;28;20170;-48
2023/10/21 00:21:18;;;;;;;40.22;6.75;;;;;;;;;;5073455;28;20028;-51
2023/10/21 00:23:45;;;;;;;37.88;6.40;;;;;;;;;;5073811;28;20032;-56
2023/10/21 00:26:12;;;;;;;47.17;7.95;;;;;;;;;;5073809;28;20048;-53
2023/10/21 00:28:39;;;;;;;39.53;7.43;;;;;;;;;;5073750;28;20033;-54
2023/10/21 00:31:06;;;;;;;41.85;7.88;;;;;;;;;;5073725;28;20421;-54
2023/10/21 00:33:33;;;;;;;41.30;6.97;;;;;;;;;;5073334;28;20029;-53
2023/10/21 00:36:00;;;;;;;39.78;7.47;;;;;;;;;;5056104;28;20021;-56
2023/10/21 00:38:28;;;;;;;41.58;6.80;;;;;;;;;;5081636;28;20031;-54
2023/10/21 00:40:55;;;;;;;32.20;7.22;;;;;;;;;;5063287;28;20509;-54
2023/10/21 00:43:32;;;;;;;42.83;7.47;;;;;;;;;;5070730;28;20021;-55
2023/10/21 00:46:06;;;;;;;32.50;6.00;;;;;;;;;;5073729;28;20063;-54
2023/10/21 00:48:33;;;;;;;39.83;8.13;;;;;;;;;;5072946;28;20071;-56
2023/10/21 00:51:00;;;;;;;35.65;7.00;;;;;;;;;;5065486;28;20101;-55
2023/10/21 00:53:30;;;;;;;26.65;5.78;;;;;;;;;;5073683;28;20055;-52
2023/10/21 00:55:57;;;;;;;34.80;6.50;;;;;;;;;;5055534;28;20025;-56
2023/10/21 00:58:25;;;;;;;38.63;6.55;;;;;;;;;;5073359;28;20440;-55
2023/10/21 01:00:52;;;;;;;40.40;7.90;;;;;;;;;;5073418;28;20032;-57
2023/10/21 01:03:22;;;;;;;32.40;6.97;;;;;;;;;;5072964;28;20025;-55
2023/10/21 01:05:49;;;;;;;27.92;6.20;;;;;;;;;;5073453;28;20032;-55
2023/10/21 01:08:16;;;;;;;29.30;6.22;;;;;;;;;;5073360;28;20074;-57
2023/10/21 01:10:43;;;;;;;27.70;6.07;;;;;;;;;;5066983;28;20021;-54
2023/10/21 01:13:10;;;;;;;27.65;5.75;;;;;;;;;;5068149;28;20036;-54
2023/10/21 01:15:37;;;;;;;29.88;6.85;;;;;;;;;;5060086;28;20475;-55
2023/10/21 01:18:06;;;;;;;23.27;5.65;;;;;;;;;;5070589;28;20033;-55
2023/10/21 01:20:33;;;;;;;28.73;5.97;;;;;;;;;;5061810;28;20040;-55
2023/10/21 01:23:00;;;;;;;25.35;6.03;;;;;;;;;;5071534;28;20029;-54
2023/10/21 01:25:28;;;;;;;22.63;5.80;;;;;;;;;;5072970;28;20029;-54
2023/10/21 01:27:56;;;;;;;26.05;5.32;;;;;;;;;;5072414;28;20029;-53
2023/10/21 01:30:23;;;;;;;25.38;6.07;;;;;;;;;;5067494;28;20391;-52
2023/10/21 01:32:50;;;;;;;31.50;5.72;;;;;;;;;;5063935;28;20059;-57
2023/10/21 01:35:18;;;;;;;19.05;5.05;;;;;;;;;;5067107;28;20094;-56
2023/10/21 01:37:45;;;;;;;28.55;5.80;;;;;;;;;;5068938;28;20093;-55
2023/10/21 01:40:13;;;;;;;22.05;5.00;;;;;;;;;;5066684;28;20107;-54
2023/10/21 01:42:41;;;;;;;21.60;5.18;;;;;;;;;;5063206;28;20501;-57
2023/10/21 01:45:08;;;;;;;23.90;5.13;;;;;;;;;;5072343;28;20024;-57
2023/10/21 01:47:36;;;;;;;22.05;5.10;;;;;;;;;;5072119;28;20053;-55
2023/10/21 01:50:07;;;;;;;24.08;4.93;;;;;;;;;;5072273;28;20103;-56
2023/10/21 01:52:35;;;;;;;28.02;5.00;;;;;;;;;;5073938;28;20394;-55
2023/10/21 01:55:05;;;;;;;17.95;4.70;;;;;;;;;;5074203;28;20378;-53
2023/10/21 01:57:33;;;;;;;20.38;4.97;;;;;;;;;;5063603;28;20025;-56
2023/10/21 02:00:01;;;;;;;19.23;4.85;;;;;;;;;;5070043;28;20130;-56
2023/10/21 02:02:28;;;;;;;18.63;5.03;;;;;;;;;;5065804;28;20491;-52
2023/10/21 02:04:55;;;;;;;24.80;5.07;;;;;;;;;;5072188;28;20048;-56
2023/10/21 02:07:22;;;;;;;17.80;5.00;;;;;;;;;;5072698;28;20419;-58
2023/10/21 02:09:49;;;;;;;20.42;5.38;;;;;;;;;;5076126;28;20391;-55
2023/10/21 02:12:16;;;;;;;25.23;5.75;;;;;;;;;;5070931;28;20036;-52
2023/10/21 02:14:43;;;;;;;17.30;5.03;;;;;;;;;;5062370;28;20078;-55
2023/10/21 02:17:10;;;;;;;19.15;4.93;;;;;;;;;;5058668;28;20419;-54
2023/10/21 02:19:37;;;;;;;16.63;5.00;;;;;;;;;;5072160;28;20039;-54
2023/10/21 02:22:05;;;;;;;14.10;4.47;;;;;;;;;;5071552;28;20028;-57
2023/10/21 02:24:35;;;;;;;16.25;4.85;;;;;;;;;;5071977;28;20528;-55
2023/10/21 02:27:02;;;;;;;23.17;5.28;;;;;;;;;;5071336;28;20028;-53
2023/10/21 02:29:30;;;;;;;19.20;4.30;;;;;;;;;;5065509;28;20028;-46
2023/10/21 02:31:57;;;;;;;14.20;5.00;;;;;;;;;;5071781;28;20078;-47
2023/10/21 02:34:24;;;;;;;13.40;4.70;;;;;;;;;;5071922;28;20024;-46
2023/10/21 02:36:51;;;;;;;17.35;5.15;;;;;;;;;;5071456;28;20481;-47
2023/10/21 02:39:18;;;;;;;21.42;4.32;;;;;;;;;;5072006;28;20462;-46
2023/10/21 02:41:47;;;;;;;18.00;4.30;;;;;;;;;;5071949;28;20504;-47
2023/10/21 02:44:14;;;;;;;17.65;4.97;;;;;;;;;;5071761;28;20028;-48
2023/10/21 02:46:41;;;;;;;11.63;4.53;;;;;;;;;;5071872;28;20021;-50
2023/10/21 02:49:08;;;;;;;16.13;4.30;;;;;;;;;;5070991;28;20052;-47
2023/10/21 02:51:35;;;;;;;14.45;4.20;;;;;;;;;;5071578;28;20055;-47
2023/10/21 02:54:03;;;;;;;12.73;3.92;;;;;;;;;;5071719;28;20549;-48
2023/10/21 02:56:30;;;;;;;11.50;4.30;;;;;;;;;;5071687;28;20021;-47
2023/10/21 02:58:57;;;;;;;12.65;4.28;;;;;;;;;;5071396;28;20445;-48
2023/10/21 03:01:27;;;;;;;13.18;3.80;;;;;;;;;;5071406;28;20051;-47
2023/10/21 03:03:54;;;;;;;16.65;4.32;;;;;;;;;;5071495;28;20020;-46
2023/10/21 03:06:22;;;;;;;14.25;3.80;;;;;;;;;;5071680;28;20016;-47
2023/10/21 03:08:49;;;;;;;14.27;4.22;;;;;;;;;;5071321;28;20055;-48
2023/10/21 03:11:16;;;;;;;12.20;4.15;;;;;;;;;;5071449;28;20047;-49
2023/10/21 03:13:43;;;;;;;14.80;3.70;;;;;;;;;;5071226;28;20389;-47
2023/10/21 03:16:12;;;;;;;9.82;3.88;;;;;;;;;;5071349;28;20027;-46
2023/10/21 03:18:40;;;;;;;12.63;3.67;;;;;;;;;;5071358;28;20059;-47
2023/10/21 03:21:08;;;;;;;11.52;3.55;;;;;;;;;;5071196;28;20033;-49
2023/10/21 03:23:35;;;;;;;14.50;3.97;;;;;;;;;;5071496;28;20035;-49
2023/10/21 03:26:03;;;;;;;14.63;3.72;;;;;;;;;;5074275;28;20457;-49
2023/10/21 03:28:30;;;;;;;11.20;3.83;;;;;;;;;;5074900;28;20557;-47
2023/10/21 03:31:03;;;;;;;10.57;3.78;;;;;;;;;;5078047;28;20040;-47
2023/10/21 03:33:31;;;;;;;13.43;3.88;;;;;;;;;;5077783;28;20093;-51
2023/10/21 03:36:01;;;;;;;11.98;3.75;;;;;;;;;;5077968;28;20028;-49
2023/10/21 03:38:29;;;;;;;10.45;3.25;;;;;;;;;;5077891;28;20020;-48
2023/10/21 03:41:05;;;;;;;7.97;3.40;;;;;;;;;;5077692;28;20500;-49
2023/10/21 03:43:33;;;;;;;13.73;3.67;;;;;;;;;;5077996;28;20027;-49
2023/10/21 03:46:03;;;;;;;11.88;3.67;;;;;;;;;;5077896;28;20028;-47
2023/10/21 03:48:31;;;;;;;8.77;3.30;;;;;;;;;;5077369;28;20066;-49
2023/10/21 03:51:12;;;;;;;12.07;3.38;;;;;;;;;;5077359;28;20115;-49
2023/10/21 03:53:43;;;;;;;8.43;3.25;;;;;;;;;;5077720;28;20108;-49
2023/10/21 03:56:10;;;;;;;8.37;3.23;;;;;;;;;;5077695;28;20036;-48
2023/10/21 03:58:38;;;;;;;10.52;3.13;;;;;;;;;;5077480;28;20485;-49
2023/10/21 04:01:05;;;;;;;7.07;3.22;;;;;;;;;;5076673;28;20021;-47
2023/10/21 04:03:32;;;;;;;8.02;3.13;;;;;;;;;;5077044;28;20401;-48
2023/10/21 04:06:00;;;;;;;10.18;2.95;;;;;;;;;;5077181;28;20032;-49
2023/10/21 04:08:27;;;;;;;9.68;3.40;;;;;;;;;;5059261;28;20108;-48
2023/10/21 04:10:54;;;;;;;11.15;3.30;;;;;;;;;;5053925;28;20401;-56
2023/10/21 04:13:22;;;;;;;8.35;3.15;;;;;;;;;;5075006;28;20490;-49
2023/10/21 04:15:52;;;;;;;8.55;3.00;;;;;;;;;;5076478;28;20043;-46
2023/10/21 04:18:19;;;;;;;12.23;3.50;;;;;;;;;;5076647;28;20419;-46
2023/10/21 04:20:46;;;;;;;8.90;3.33;;;;;;;;;;5077230;28;20718;-46
2023/10/21 04:23:13;;;;;;;8.50;3.30;;;;;;;;;;5075234;28;20033;-45
2023/10/21 04:25:40;;;;;;;9.05;3.53;;;;;;;;;;5077172;28;20111;-45
2023/10/21 04:28:07;;;;;;;10.70;3.70;;;;;;;;;;5076560;28;20103;-47
2023/10/21 04:30:35;;;;;;;7.50;3.33;;;;;;;;;;5076280;28;20032;-49
2023/10/21 04:33:02;;;;;;;10.32;3.40;;;;;;;;;;5076493;28;20032;-46
2023/10/21 04:35:29;;;;;;;8.10;3.03;;;;;;;;;;5074413;28;20092;-45
2023/10/21 04:37:56;;;;;;;12.55;3.22;;;;;;;;;;5073266;28;20024;-47
2023/10/21 04:40:23;;;;;;;7.32;3.22;;;;;;;;;;5073642;28;20104;-45
2023/10/21 04:42:50;;;;;;;8.02;3.08;;;;;;;;;;5073956;28;20032;-46
2023/10/21 04:45:18;;;;;;;8.52;2.90;;;;;;;;;;5071160;28;20444;-46
2023/10/21 04:47:45;;;;;;;9.05;3.25;;;;;;;;;;5072975;28;20036;-45
2023/10/21 04:50:12;;;;;;;11.00;2.70;;;;;;;;;;5073858;28;20044;-45
2023/10/21 04:52:39;;;;;;;8.75;2.95;;;;;;;;;;5074204;28;20029;-45
2023/10/21 04:55:06;;;;;;;9.00;2.90;;;;;;;;;;5074006;28;20502;-46
2023/10/21 04:57:33;;;;;;;9.77;3.03;;;;;;;;;;5073990;28;20467;-45
2023/10/21 05:00:00;;;;;;;9.52;2.97;;;;;;;;;;5074044;28;20025;-46
2023/10/21 05:02:28;;;;;;;7.95;2.80;;;;;;;;;;5074008;28;20047;-46
2023/10/21 05:04:55;;;;;;;7.38;2.78;;;;;;;;;;5073910;28;20116;-46
2023/10/21 05:07:22;;;;;;;7.60;2.70;;;;;;;;;;5073810;28;20028;-45
2023/10/21 05:09:49;;;;;;;8.15;2.90;;;;;;;;;;5073842;28;20028;-46
2023/10/21 05:12:16;;;;;;;6.82;2.78;;;;;;;;;;5073656;28;20028;-46
2023/10/21 05:14:43;;;;;;;6.47;2.70;;;;;;;;;;5073677;28;20028;-46
2023/10/21 05:17:10;;;;;;;7.43;2.90;;;;;;;;;;5073525;28;20029;-47
2023/10/21 05:19:37;;;;;;;5.57;2.58;;;;;;;;;;5073514;28;20380;-46
2023/10/21 05:22:04;;;;;;;8.88;2.80;;;;;;;;;;5073650;28;20025;-46
2023/10/21 05:24:31;;;;;;;5.93;2.20;;;;;;;;;;5073561;28;20394;-45
2023/10/21 05:26:59;;;;;;;5.93;2.40;;;;;;;;;;5073436;28;20375;-45
2023/10/21 05:29:27;;;;;;;9.10;2.70;;;;;;;;;;5073525;28;20164;-46
2023/10/21 05:31:54;;;;;;;5.60;2.67;;;;;;;;;;5073173;28;20090;-46
2023/10/21 05:34:21;;;;;;;8.02;2.70;;;;;;;;;;5073389;28;20032;-45
2023/10/21 05:36:48;;;;;;;7.00;2.40;;;;;;;;;;5073332;28;20052;-47
2023/10/21 05:39:15;;;;;;;7.38;3.08;;;;;;;;;;5073305;28;20107;-48
2023/10/21 05:41:42;;;;;;;6.93;2.13;;;;;;;;;;5073132;28;20041;-46
2023/10/21 05:44:10;;;;;;;9.35;2.70;;;;;;;;;;5073167;28;20025;-46
2023/10/21 05:46:37;;;;;;;6.93;2.15;;;;;;;;;;5073063;28;20016;-47
2023/10/21 05:49:04;;;;;;;5.30;1.95;;;;;;;;;;5072818;28;20502;-46
2023/10/21 05:51:31;;;;;;;6.68;2.70;;;;;;;;;;5072959;28;20102;-45
2023/10/21 05:53:58;;;;;;;8.15;2.70;;;;;;;;;;5072987;28;20032;-46
2023/10/21 05:56:26;;;;;;;6.78;2.53;;;;;;;;;;5072817;28;20033;-45
2023/10/21 05:58:53;;;;;;;7.72;2.40;;;;;;;;;;5072801;28;20391;-46
2023/10/21 06:01:20;;;;;;;5.30;2.15;;;;;;;;;;5071560;28;20554;-46
2023/10/21 06:03:47;;;;;;;7.50;2.65;;;;;;;;;;5072721;28;20460;-47
2023/10/21 06:06:14;;;;;;;5.85;2.05;;;;;;;;;;5072749;28;20032;-46
2023/10/21 06:08:41;;;;;;;6.38;2.10;;;;;;;;;;5072638;28;20017;-47
2023/10/21 06:11:08;;;;;;;8.65;2.40;;;;;;;;;;5072518;28;20502;-46
2023/10/21 06:13:35;;;;;;;8.63;2.70;;;;;;;;;;5072593;28;20059;-45
2023/10/21 06:16:02;;;;;;;5.60;2.38;;;;;;;;;;5072630;28;20040;-45
2023/10/21 06:18:29;;;;;;;4.45;2.03;;;;;;;;;;5072359;28;20032;-45
2023/10/21 06:20:56;;;;;;;5.15;2.20;;;;;;;;;;5072243;28;20616;-45
2023/10/21 06:23:23;;;;;;;6.93;2.60;;;;;;;;;;5054405;28;20025;-45
2023/10/21 06:25:50;;;;;;;5.15;2.20;;;;;;;;;;5072416;28;20020;-45
2023/10/21 06:28:17;;;;;;;4.32;1.95;;;;;;;;;;5071975;28;20055;-47
2023/10/21 06:30:44;;;;;;;4.43;1.98;;;;;;;;;;5072207;28;20032;-46
2023/10/21 06:33:12;;;;;;;5.93;2.10;;;;;;;;;;5072115;28;20390;-45
2023/10/21 06:35:39;;;;;;;5.38;2.13;;;;;;;;;;5072192;28;20036;-47
2023/10/21 06:38:06;;;;;;;6.68;2.03;;;;;;;;;;5072018;28;20024;-45
2023/10/21 06:40:34;;;;;;;5.00;2.20;;;;;;;;;;5072140;28;20025;-45
2023/10/21 06:43:01;;;;;;;5.88;2.13;;;;;;;;;;5071998;28;20032;-46
2023/10/21 06:45:28;;;;;;;5.07;1.80;;;;;;;;;;5071982;28;20056;-48
2023/10/21 06:47:55;;;;;;;7.50;1.95;;;;;;;;;;5071704;28;20025;-45
2023/10/21 06:50:22;;;;;;;4.40;2.00;;;;;;;;;;5071910;28;20462;-46
2023/10/21 06:52:49;;;;;;;6.57;1.88;;;;;;;;;;5071904;28;20478;-46
2023/10/21 06:55:17;;;;;;;5.03;2.25;;;;;;;;;;5071990;28;20035;-46
2023/10/21 06:57:44;;;;;;;6.15;2.15;;;;;;;;;;5071762;28;20020;-46
2023/10/21 07:00:12;;;;;;;6.38;2.20;;;;;;;;;;5071281;28;20093;-46
2023/10/21 07:02:39;;;;;;;5.53;1.98;;;;;;;;;;5071679;28;20127;-46
2023/10/21 07:05:09;;;;;;;5.68;2.00;;;;;;;;;;5071796;28;20020;-45
2023/10/21 07:07:38;;;;;;;5.20;1.88;;;;;;;;;;5071606;28;20041;-44
2023/10/21 07:10:05;;;;;;;4.95;2.20;;;;;;;;;;5071806;28;20478;-44
2023/10/21 07:12:34;;;;;;;5.88;2.53;;;;;;;;;;5071607;28;20071;-45
2023/10/21 07:15:02;;;;;;;5.30;2.10;;;;;;;;;;5071449;28;20033;-44
2023/10/21 07:17:31;;;;;;;4.05;1.65;;;;;;;;;;5071477;28;20040;-45
2023/10/21 07:19:58;;;;;;;8.50;2.10;;;;;;;;;;5071545;28;20427;-45
2023/10/21 07:22:25;;;;;;;4.32;1.80;;;;;;;;;;5071570;28;20032;-45
2023/10/21 07:24:59;;;;;;;9.70;2.17;;;;;;;;;;5071301;28;20043;-46
2023/10/21 07:27:26;;;;;;;6.07;1.88;;;;;;;;;;5071491;28;20025;-46
2023/10/21 07:29:55;;;;;;;6.80;2.00;;;;;;;;;;5071334;28;20028;-48
2023/10/21 07:32:23;;;;;;;5.50;1.83;;;;;;;;;;5071255;28;20482;-46
2023/10/21 07:34:50;;;;;;;5.82;1.83;;;;;;;;;;5071457;28;20062;-45
2023/10/21 07:37:17;;;;;;;8.23;2.25;;;;;;;;;;5071391;28;20021;-47
2023/10/21 07:39:44;;;;;;;5.75;1.85;;;;;;;;;;5071365;28;20107;-45
2023/10/21 07:42:12;;;;;;;6.25;2.22;;;;;;;;;;5071425;28;20112;-46
2023/10/21 07:44:39;;;;;;;7.22;2.20;;;;;;;;;;5071219;28;20036;-46
2023/10/21 07:47:06;;;;;;;5.82;1.90;;;;;;;;;;5069903;28;20383;-47
2023/10/21 07:49:33;;;;;;;7.30;2.25;;;;;;;;;;5071168;28;20054;-45
2023/10/21 07:52:01;;;;;;;5.15;2.10;;;;;;;;;;5071146;28;20040;-46
2023/10/21 07:54:28;;;;;;;5.88;1.83;;;;;;;;;;5071380;28;20086;-46
2023/10/21 07:56:55;;;;;;;5.43;1.90;;;;;;;;;;5071049;28;20528;-46
2023/10/21 07:59:22;;;;;;;6.25;1.67;;;;;;;;;;5071282;28;20103;-46
2023/10/21 08:01:50;;;;;;;7.13;1.73;;;;;;;;;;5071192;28;20116;-45
2023/10/21 08:04:18;;;;;;;6.03;1.77;;;;;;;;;;5070961;28;20031;-44
2023/10/21 08:06:46;;;;;;;5.25;1.90;;;;;;;;;;5071146;28;20052;-44
2023/10/21 08:09:17;;;;;;;5.65;1.90;;;;;;;;;;5071012;28;20074;-45
2023/10/21 08:11:44;;;;;;;5.22;1.95;;;;;;;;;;5071148;28;20032;-45
2023/10/21 08:14:12;;;;;;;5.07;2.00;;;;;;;;;;5074361;28;20033;-45
2023/10/21 08:16:39;;;;;;;5.10;2.00;;;;;;;;;;5074706;28;20025;-46
2023/10/21 08:19:06;;;;;;;5.43;1.98;;;;;;;;;;5074794;28;20103;-46
2023/10/21 08:21:34;;;;;;;4.32;1.90;;;;;;;;;;5074766;28;20107;-45
2023/10/21 08:24:02;;;;;;;6.40;1.80;;;;;;;;;;5074681;28;20025;-46
2023/10/21 08:26:31;;;;;;;7.43;1.83;;;;;;;;;;5074413;28;20444;-47
2023/10/21 08:28:59;;;;;;;5.65;1.58;;;;;;;;;;5074377;28;20037;-45
2023/10/21 08:31:28;;;;;;;4.75;1.55;;;;;;;;;;5074476;28;20029;-46
2023/10/21 08:33:55;;;;;;;5.40;2.05;;;;;;;;;;5074447;28;20082;-46
2023/10/21 08:36:22;;;;;;;4.75;1.70;;;;;;;;;;5074469;28;20028;-46
2023/10/21 08:38:53;;;;;;;4.72;1.67;;;;;;;;;;5074237;28;20087;-45
2023/10/21 08:41:21;;;;;;;3.87;1.60;;;;;;;;;;5074254;28;20707;-45
2023/10/21 08:43:49;;;;;;;4.30;1.77;;;;;;;;;;5074387;28;20017;-46
2023/10/21 08:46:19;;;;;;;4.97;1.98;;;;;;;;;;5056717;28;20425;-46
2023/10/21 08:48:47;;;;;;;7.70;1.65;;;;;;;;;;5074086;28;20076;-47
2023/10/21 08:51:25;;;;;;;6.72;1.90;;;;;;;;;;5074287;28;20390;-45
2023/10/21 08:53:55;;;;;;;5.90;1.80;;;;;;;;;;5073962;28;20470;-46
2023/10/21 08:56:22;;;;;;;6.03;1.85;;;;;;;;;;5073841;28;20071;-46
2023/10/21 08:58:51;;;;;;;7.97;1.92;;;;;;;;;;5074067;28;20021;-45
2023/10/21 09:01:18;;;;;;;5.10;1.77;;;;;;;;;;5073867;28;20036;-45
2023/10/21 09:03:45;;;;;;;4.72;1.73;;;;;;;;;;5073954;28;20487;-46
2023/10/21 09:06:12;;;;;;;7.63;2.50;;;;;;;;;;5073832;28;20036;-46
2023/10/21 09:08:43;;;;;;;5.15;1.80;;;;;;;;;;5073945;28;20116;-46
2023/10/21 09:11:11;;;;;;;3.90;1.30;;;;;;;;;;5073617;28;20657;-45
2023/10/21 09:13:39;;;;;;;5.22;1.85;;;;;;;;;;5073692;28;20483;-45
2023/10/21 09:16:20;;;;;;;6.97;2.05;;;;;;;;;;5073584;28;20069;-47
2023/10/21 09:19:00;;;;;;;6.25;1.70;;;;;;;;;;5073611;28;20395;-46
2023/10/21 09:21:38;;;;;;;3.83;1.50;;;;;;;;;;5073593;28;20017;-47
2023/10/21 09:24:12;;;;;;;4.13;1.60;;;;;;;;;;5072925;28;20039;-45
2023/10/21 09:26:39;;;;;;;6.50;1.48;;;;;;;;;;5073254;28;20037;-46
2023/10/21 09:29:07;;;;;;;5.35;1.70;;;;;;;;;;5073528;28;20025;-45
2023/10/21 09:31:53;;;;;;;5.13;1.85;;;;;;;;;;5073363;28;20025;-46
2023/10/21 09:34:31;;;;;;;4.90;1.65;;;;;;;;;;5073429;28;20474;-45
2023/10/21 09:37:00;;;;;;;5.43;1.75;;;;;;;;;;5073043;28;20608;-45
2023/10/21 09:39:43;;;;;;;4.68;1.60;;;;;;;;;;5073369;28;20020;-47
2023/10/21 09:42:10;;;;;;;4.68;1.58;;;;;;;;;;5072862;28;20037;-46
2023/10/21 09:44:38;;;;;;;4.78;1.73;;;;;;;;;;5073233;28;20360;-45
2023/10/21 09:47:05;;;;;;;4.45;1.70;;;;;;;;;;5072997;28;20055;-46
2023/10/21 09:49:39;;;;;;;5.28;1.77;;;;;;;;;;5072849;28;20537;-47
2023/10/21 09:52:09;;;;;;;5.35;1.98;;;;;;;;;;5072982;28;20051;-45
2023/10/21 09:54:45;;;;;;;4.72;1.50;;;;;;;;;;5072950;28;20145;-46
2023/10/21 09:57:13;;;;;;;5.10;1.60;;;;;;;;;;5072813;28;20020;-45
2023/10/21 09:59:40;;;;;;;4.13;1.73;;;;;;;;;;5072858;28;20035;-48
2023/10/21 10:02:08;;;;;;;3.85;1.52;;;;;;;;;;5072934;28;20025;-45
2023/10/21 10:04:36;;;;;;;5.50;1.77;;;;;;;;;;5072864;28;20056;-46
2023/10/21 10:07:06;;;;;;;3.72;1.50;;;;;;;;;;5072877;28;20037;-47
2023/10/21 10:09:37;;;;;;;4.00;1.83;;;;;;;;;;5069370;28;20394;-45
2023/10/21 10:12:24;;;;;;;3.10;1.50;;;;;;;;;;5071654;28;20051;-45
2023/10/21 10:14:54;;;;;;;4.45;1.63;;;;;;;;;;5076076;28;20035;-45
2023/10/21 10:17:39;;;;;;;3.47;1.45;;;;;;;;;;5079326;28;20031;-47
2023/10/21 10:20:18;;;;;;;4.10;1.50;;;;;;;;;;5070756;28;20087;-45
2023/10/21 10:22:52;;;;;;;3.92;1.63;;;;;;;;;;5070352;28;20029;-45
2023/10/21 10:25:27;;;;;;;3.78;1.63;;;;;;;;;;5069561;28;20068;-46
2023/10/21 10:27:58;;;;;;;4.05;1.80;;;;;;;;;;5071627;28;20036;-45
2023/10/21 10:30:25;;;;;;;3.72;1.40;;;;;;;;;;5071496;28;20028;-46
2023/10/21 10:32:53;;;;;;;3.00;1.60;;;;;;;;;;5070523;28;20033;-46
2023/10/21 10:35:30;;;;;;;3.60;1.60;;;;;;;;;;5071380;28;20111;-46
2023/10/21 10:37:57;;;;;;;3.60;1.30;;;;;;;;;;5071963;28;20451;-45
2023/10/21 10:40:38;;;;;;;3.45;1.50;;;;;;;;;;5071344;28;20032;-48
2023/10/21 10:43:10;;;;;;;4.00;1.58;;;;;;;;;;5069502;28;20032;-45
2023/10/21 10:45:40;;;;;;;4.20;1.58;;;;;;;;;;5071334;28;20037;-46
2023/10/21 10:48:07;;;;;;;4.47;1.65;;;;;;;;;;5070643;28;20053;-45
2023/10/21 10:50:38;;;;;;;3.53;1.60;;;;;;;;;;5071192;28;20799;-45
2023/10/21 10:53:34;;;;;;;5.75;1.50;;;;;;;;;;5071161;28;20036;-45
2023/10/21 10:56:00;;;;;;;4.63;1.73;;;;;;;;;;5067575;28;20050;-47
2023/10/21 10:58:28;;;;;;;7.68;1.85;;;;;;;;;;5071230;28;20400;-46
2023/10/21 11:00:56;;;;;;;6.38;1.83;;;;;;;;;;5071151;28;20032;-46
2023/10/21 11:03:27;;;;;;;7.28;1.88;;;;;;;;;;5070963;28;20040;-46
2023/10/21 11:05:57;;;;;;;8.27;1.77;;;;;;;;;;5070960;28;20023;-45
2023/10/21 11:08:25;;;;;;;6.88;1.70;;;;;;;;;;5071144;28;20047;-46
2023/10/21 11:10:53;;;;;;;10.57;2.03;;;;;;;;;;5070928;28;20391;-46
2023/10/21 11:13:22;;;;;;;8.98;1.80;;;;;;;;;;5070876;28;20036;-45
2023/10/21 11:15:54;;;;;;;5.28;1.73;;;;;;;;;;5071069;28;20036;-46
2023/10/21 11:18:21;;;;;;;7.68;1.77;;;;;;;;;;5068913;28;20039;-45
2023/10/21 11:20:52;;;;;;;6.35;1.80;;;;;;;;;;5071033;28;20024;-46
2023/10/21 11:23:19;;;;;;;8.35;1.83;;;;;;;;;;5068478;28;20040;-45
2023/10/21 11:25:48;;;;;;;8.88;1.77;;;;;;;;;;5071047;28;20487;-45
2023/10/21 11:28:15;;;;;;;5.18;1.90;;;;;;;;;;5071299;28;20028;-46
2023/10/21 11:30:43;;;;;;;9.48;1.90;;;;;;;;;;5070983;28;20033;-47
2023/10/21 11:33:10;;;;;;;8.23;1.90;;;;;;;;;;5070725;28;20048;-46
2023/10/21 11:35:39;;;;;;;9.80;1.90;;;;;;;;;;5071342;28;20044;-47
2023/10/21 11:38:07;;;;;;;12.00;1.90;;;;;;;;;;5071375;28;20036;-46
2023/10/21 11:40:37;;;;;;;10.00;2.10;;;;;;;;;;5071354;28;20025;-46
2023/10/21 11:43:07;;;;;;;6.70;2.38;;;;;;;;;;5071466;28;20391;-46
2023/10/21 11:45:34;;;;;;;7.10;1.60;;;;;;;;;;5071429;28;20028;-46
2023/10/21 11:48:08;;;;;;;6.45;1.90;;;;;;;;;;5074329;28;20052;-46
2023/10/21 11:50:42;;;;;;;4.75;1.75;;;;;;;;;;5058553;28;20032;-46
2023/10/21 11:53:09;;;;;;;7.72;1.88;;;;;;;;;;5075126;28;20108;-46
2023/10/21 12:35:52;;;;;;;7.22;2.20;;;;;;;;;;5074850;28;20047;-46
2023/10/21 12:38:38;;;;;;;9.02;1.98;;;;;;;;;;5074335;28;20411;-46
2023/10/21 12:43:55;;;;;;;4.90;2.30;;;;;;;;;;5074311;28;20082;-48
2023/10/21 12:46:25;;;;;;;7.00;2.50;;;;;;;;;;5073504;28;20024;-46
2023/10/21 12:48:52;;;;;;;8.82;2.40;;;;;;;;;;5072279;28;20131;-46
2023/10/21 12:51:23;;;;;;;8.48;2.20;;;;;;;;;;5073110;28;20112;-45
2023/10/21 12:53:50;;;;;;;5.57;2.28;;;;;;;;;;5067676;28;20047;-48
2023/10/21 12:56:18;;;;;;;5.32;1.95;;;;;;;;;;5074042;28;20078;-49
2023/10/21 12:58:45;;;;;;;7.72;1.95;;;;;;;;;;5072940;28;20039;-46
2023/10/21 13:01:15;;;;;;;5.88;2.03;;;;;;;;;;5073948;28;20082;-46
2023/10/21 13:03:43;;;;;;;6.10;1.83;;;;;;;;;;5073781;28;20047;-47
2023/10/21 13:06:10;;;;;;;8.50;2.22;;;;;;;;;;5073802;28;20066;-45
2023/10/21 13:08:37;;;;;;;7.32;2.05;;;;;;;;;;5073852;28;20032;-49
2023/10/21 13:11:05;;;;;;;7.68;2.03;;;;;;;;;;5073747;28;20066;-46
2023/10/21 13:13:37;;;;;;;8.23;2.03;;;;;;;;;;5073388;28;20735;-46
2023/10/21 13:16:04;;;;;;;5.03;1.80;;;;;;;;;;5073586;28;20442;-48
2023/10/21 13:18:33;;;;;;;9.52;2.20;;;;;;;;;;5073464;28;20032;-46
2023/10/21 13:21:00;;;;;;;6.68;1.98;;;;;;;;;;5072875;28;20035;-47
2023/10/21 13:23:27;;;;;;;5.95;1.73;;;;;;;;;;5073382;28;20078;-47
2023/10/21 13:25:55;;;;;;;6.13;2.00;;;;;;;;;;5073438;28;20028;-46
2023/10/21 13:28:22;;;;;;;6.72;2.03;;;;;;;;;;5073476;28;20027;-46
2023/10/21 13:30:49;;;;;;;5.88;2.08;;;;;;;;;;5073335;28;20112;-46
2023/10/21 13:33:17;;;;;;;4.97;1.90;;;;;;;;;;5073299;28;20501;-47
2023/10/21 13:35:44;;;;;;;4.75;1.88;;;;;;;;;;5073186;28;20024;-48
2023/10/21 13:38:11;;;;;;;5.78;2.00;;;;;;;;;;5072934;28;20058;-52
2023/10/21 13:40:40;;;;;;;6.88;1.75;;;;;;;;;;5072198;28;20028;-57
2023/10/21 13:43:08;;;;;;;8.27;2.10;;;;;;;;;;5073053;28;20032;-61
2023/10/21 13:45:35;;;;;;;8.75;2.15;;;;;;;;;;5072392;28;20087;-59
2023/10/21 13:48:08;;;;;;;6.40;2.28;;;;;;;;;;5072465;28;20021;-56
2023/10/21 13:50:36;;;;;;;9.90;2.08;;;;;;;;;;5069144;28;20037;-61
2023/10/21 13:53:14;;;;;;;8.60;2.22;;;;;;;;;;5072499;28;20048;-62
2023/10/21 13:55:42;;;;;;;5.22;1.98;;;;;;;;;;5072513;28;20040;-62
2023/10/21 13:58:12;;;;;;;4.38;1.67;;;;;;;;;;5072202;28;20056;-62
2023/10/21 14:00:40;;;;;;;11.45;2.17;;;;;;;;;;5072178;28;20028;-62
2023/10/21 14:03:21;;;;;;;9.93;2.03;;;;;;;;;;5072157;28;20037;-61
2023/10/21 14:05:52;;;;;;;9.27;2.10;;;;;;;;;;5071814;28;20033;-62
2023/10/21 14:08:20;;;;;;;8.63;2.17;;;;;;;;;;5071274;28;20599;-62
2023/10/21 14:10:48;;;;;;;8.40;2.00;;;;;;;;;;5071904;28;20024;-58
2023/10/21 14:13:19;;;;;;;10.65;2.50;;;;;;;;;;5071756;28;20182;-57
2023/10/21 14:15:50;;;;;;;6.57;2.20;;;;;;;;;;5071634;28;20036;-58
2023/10/21 14:18:17;;;;;;;11.02;2.30;;;;;;;;;;5071697;28;20039;-61
2023/10/21 14:20:49;;;;;;;12.55;2.40;;;;;;;;;;5071824;28;20025;-57
2023/10/21 14:23:18;;;;;;;7.65;2.83;;;;;;;;;;5071498;28;20040;-62
2023/10/21 14:25:46;;;;;;;7.15;1.88;;;;;;;;;;5071543;28;20040;-62
2023/10/21 14:28:14;;;;;;;10.30;2.35;;;;;;;;;;5071284;28;20040;-59
2023/10/21 14:30:48;;;;;;;6.88;2.35;;;;;;;;;;5071400;28;20474;-56
2023/10/21 14:33:19;;;;;;;9.43;2.40;;;;;;;;;;5071122;28;20048;-57
2023/10/21 14:35:47;;;;;;;9.98;3.17;;;;;;;;;;5070574;28;20058;-61
2023/10/21 14:38:15;;;;;;;13.45;2.80;;;;;;;;;;5071190;28;20115;-61
2023/10/21 14:40:42;;;;;;;9.48;2.47;;;;;;;;;;5070342;28;20024;-61
2023/10/21 14:43:10;;;;;;;9.70;2.83;;;;;;;;;;5071228;28;20029;-61
2023/10/21 14:45:38;;;;;;;10.18;2.58;;;;;;;;;;5070569;28;20025;-59
2023/10/21 14:48:07;;;;;;;12.60;2.67;;;;;;;;;;5068049;28;20508;-56
2023/10/21 14:50:34;;;;;;;12.45;3.10;;;;;;;;;;5071246;28;20037;-61
2023/10/21 14:53:03;;;;;;;10.30;3.10;;;;;;;;;;5071084;28;20044;-54
2023/10/21 14:55:32;;;;;;;16.98;3.50;;;;;;;;;;5070632;28;20449;-58
2023/10/21 14:57:59;;;;;;;15.15;3.63;;;;;;;;;;5070733;28;20060;-57
2023/10/21 15:00:26;;;;;;;13.73;3.47;;;;;;;;;;5071026;28;20115;-54
2023/10/21 15:02:55;;;;;;;15.90;3.55;;;;;;;;;;5071036;28;20028;-60
2023/10/21 15:05:22;;;;;;;24.50;4.30;;;;;;;;;;5070839;28;20111;-60
2023/10/21 15:07:50;;;;;;;17.02;4.78;;;;;;;;;;5070901;28;20386;-60
2023/10/21 15:10:17;;;;;;;16.75;4.55;;;;;;;;;;5070361;28;20113;-60
2023/10/21 15:12:45;;;;;;;19.42;4.65;;;;;;;;;;5068885;28;20123;-56
2023/10/21 15:15:13;;;;;;;16.92;3.85;;;;;;;;;;5071283;28;20039;-46
2023/10/21 15:17:40;;;;;;;14.15;3.78;;;;;;;;;;5064782;28;20028;-49
2023/10/21 15:20:08;;;;;;;15.82;3.92;;;;;;;;;;5076936;28;20521;-50
2023/10/21 15:22:36;;;;;;;19.77;4.25;;;;;;;;;;5078327;28;20487;-60
2023/10/21 15:25:10;;;;;;;47.63;4.85;;;;;;;;;;5067667;28;20047;-51
2023/10/21 15:27:37;;;;;;;15.57;4.20;;;;;;;;;;5067743;28;20033;-48
2023/10/21 15:30:05;;;;;;;16.38;3.72;;;;;;;;;;5068493;28;20025;-57